Time,TemperatureF,DewpointF,PressureIn,WindDirection,WindDirectionDegrees,WindSpeedMPH,WindSpeedGustMPH,Humidity,HourlyPrecipIn,Conditions,Clouds,dailyrainin,SoftwareType,DateUTC
2013-01-29 00:02:00,40.3,38.7,30.14,WSW,241,0.0,0.0,94,0.00,,,0.00,WeatherCatV1.02B3,2013-01-29 05:02:00,
2013-01-29 00:03:00,40.2,38.6,30.13,WSW,242,0.0,0.0,94,0.00,,,0.00,WeatherCatV1.02B3,2013-01-29 05:03:00,
2013-01-29 00:08:00,40.1,38.5,30.14,WSW,242,0.0,0.0,94,0.00,,,0.00,WeatherCatV1.02B3,2013-01-29 05:08:00,
2013-01-29 00:13:00,40.0,38.4,30.14,WSW,241,0.0,0.0,94,0.00,,,0.00,WeatherCatV1.02B3,2013-01-29 05:13:00,
2013-01-29 00:18:00,40.1,38.5,30.14,WSW,242,0.0,0.0,94,0.00,,,0.01,WeatherCatV1.02B3,2013-01-29 05:18:00,
2013-01-29 00:23:00,40.3,38.7,30.13,WSW,242,0.0,0.0,94,0.00,,,0.01,WeatherCatV1.02B3,2013-01-29 05:23:00,
2013-01-29 00:24:00,40.2,38.6,30.13,WSW,241,0.0,0.0,94,0.00,,,0.01,WeatherCatV1.02B3,2013-01-29 05:24:00,
2013-01-29 00:29:00,40.0,38.4,30.13,WSW,242,0.0,0.0,94,0.00,,,0.01,WeatherCatV1.02B3,2013-01-29 05:29:00,
2013-01-29 00:34:00,39.9,38.3,30.13,WSW,242,0.0,0.0,94,0.00,,,0.01,WeatherCatV1.02B3,2013-01-29 05:34:00,
2013-01-29 00:39:00,39.8,38.2,30.14,WSW,242,0.0,0.0,94,0.00,,,0.01,WeatherCatV1.02B3,2013-01-29 05:39:00,
2013-01-29 00:44:00,39.8,38.2,30.13,WSW,242,0.0,0.0,94,0.00,,,0.01,WeatherCatV1.02B3,2013-01-29 05:44:00,
2013-01-29 00:48:00,39.7,38.1,30.13,WSW,241,0.0,0.0,94,0.00,,,0.01,WeatherCatV1.02B3,2013-01-29 05:48:00,
2013-01-29 00:53:00,39.6,38.3,30.13,WSW,241,0.0,0.0,95,0.00,,,0.01,WeatherCatV1.02B3,2013-01-29 05:53:00,
2013-01-29 00:58:00,39.5,37.9,30.13,WSW,242,0.0,0.0,94,0.00,,,0.01,WeatherCatV1.02B3,2013-01-29 05:58:00,
2013-01-29 01:03:00,39.4,37.8,30.13,WSW,242,0.0,0.0,94,0.00,,,0.01,WeatherCatV1.02B3,2013-01-29 06:03:00,
2013-01-29 01:08:00,39.3,37.7,30.13,WSW,241,0.0,0.0,94,0.00,,,0.01,WeatherCatV1.02B3,2013-01-29 06:08:00,
2013-01-29 01:13:00,39.2,37.9,30.13,WSW,241,0.0,0.0,95,0.00,,,0.01,WeatherCatV1.02B3,2013-01-29 06:13:00,
2013-01-29 01:18:00,39.2,37.9,30.13,WSW,242,0.0,0.0,95,0.00,,,0.01,WeatherCatV1.02B3,2013-01-29 06:18:00,
2013-01-29 01:23:00,39.3,37.7,30.13,WSW,241,0.0,0.0,94,0.00,,,0.01,WeatherCatV1.02B3,2013-01-29 06:23:00,
2013-01-29 01:28:00,39.4,37.8,30.12,WSW,241,0.0,0.0,94,0.00,,,0.01,WeatherCatV1.02B3,2013-01-29 06:28:00,
2013-01-29 01:33:00,39.6,38.3,30.12,WSW,241,0.0,0.0,95,0.00,,,0.01,WeatherCatV1.02B3,2013-01-29 06:33:00,
2013-01-29 01:38:00,39.6,38.3,30.12,WSW,242,0.0,0.0,95,0.00,,,0.01,WeatherCatV1.02B3,2013-01-29 06:38:00,
2013-01-29 01:43:00,39.6,38.3,30.13,WSW,242,0.0,0.0,95,0.00,,,0.01,WeatherCatV1.02B3,2013-01-29 06:43:00,
2013-01-29 01:48:00,39.7,38.4,30.13,WSW,242,0.0,0.0,95,0.00,,,0.01,WeatherCatV1.02B3,2013-01-29 06:48:00,
2013-01-29 01:53:00,39.6,38.3,30.12,WSW,242,0.0,0.0,95,0.00,,,0.01,WeatherCatV1.02B3,2013-01-29 06:53:00,
2013-01-29 01:58:00,39.5,38.2,30.12,WSW,242,0.0,0.0,95,0.00,,,0.01,WeatherCatV1.02B3,2013-01-29 06:58:00,
2013-01-29 02:03:00,39.2,37.9,30.12,WSW,241,0.0,0.0,95,0.00,,,0.01,WeatherCatV1.02B3,2013-01-29 07:03:00,
2013-01-29 02:08:00,39.0,37.7,30.12,WSW,241,0.0,0.0,95,0.00,,,0.01,WeatherCatV1.02B3,2013-01-29 07:08:00,
2013-01-29 02:13:00,38.8,37.5,30.12,WSW,242,0.0,0.0,95,0.00,,,0.01,WeatherCatV1.02B3,2013-01-29 07:13:00,
2013-01-29 02:18:00,38.8,37.5,30.12,WSW,242,0.0,0.0,95,0.00,,,0.01,WeatherCatV1.02B3,2013-01-29 07:18:00,
2013-01-29 02:23:00,38.8,37.5,30.12,WSW,242,0.0,0.0,95,0.00,,,0.01,WeatherCatV1.02B3,2013-01-29 07:23:00,
2013-01-29 02:28:00,38.7,37.4,30.12,WSW,242,0.0,0.0,95,0.00,,,0.01,WeatherCatV1.02B3,2013-01-29 07:28:00,
2013-01-29 02:33:00,38.8,37.5,30.12,WSW,242,0.0,0.0,95,0.00,,,0.01,WeatherCatV1.02B3,2013-01-29 07:33:00,
2013-01-29 02:38:00,38.7,37.4,30.12,WSW,241,0.0,0.0,95,0.00,,,0.01,WeatherCatV1.02B3,2013-01-29 07:38:00,
2013-01-29 02:43:00,38.7,37.4,30.12,WSW,242,0.0,0.0,95,0.00,,,0.01,WeatherCatV1.02B3,2013-01-29 07:43:00,
2013-01-29 02:48:00,38.8,37.5,30.12,WSW,242,0.0,0.0,95,0.00,,,0.01,WeatherCatV1.02B3,2013-01-29 07:48:00,
2013-01-29 02:53:00,38.7,37.4,30.11,WSW,242,0.0,0.0,95,0.00,,,0.01,WeatherCatV1.02B3,2013-01-29 07:53:00,
2013-01-29 02:58:00,38.7,37.4,30.12,WSW,242,0.0,0.0,95,0.00,,,0.01,WeatherCatV1.02B3,2013-01-29 07:58:00,
2013-01-29 03:03:00,38.7,37.4,30.11,WSW,241,0.0,0.0,95,0.00,,,0.01,WeatherCatV1.02B3,2013-01-29 08:03:00,
2013-01-29 03:08:00,38.7,37.4,30.11,WSW,242,0.0,0.0,95,0.00,,,0.01,WeatherCatV1.02B3,2013-01-29 08:08:00,
2013-01-29 03:13:00,38.7,37.4,30.11,WSW,242,0.0,0.0,95,0.00,,,0.01,WeatherCatV1.02B3,2013-01-29 08:13:00,
2013-01-29 03:18:00,38.7,37.4,30.11,WSW,242,0.0,0.0,95,0.00,,,0.01,WeatherCatV1.02B3,2013-01-29 08:18:00,
2013-01-29 03:23:00,38.6,37.3,30.11,WSW,242,0.0,0.0,95,0.00,,,0.01,WeatherCatV1.02B3,2013-01-29 08:23:00,
2013-01-29 03:28:00,38.7,37.4,30.10,WSW,242,0.0,0.0,95,0.00,,,0.01,WeatherCatV1.02B3,2013-01-29 08:28:00,
2013-01-29 03:33:00,38.7,37.4,30.10,WSW,242,0.0,0.0,95,0.00,,,0.01,WeatherCatV1.02B3,2013-01-29 08:33:00,
2013-01-29 03:38:00,38.5,37.2,30.10,WSW,241,0.0,0.0,95,0.00,,,0.01,WeatherCatV1.02B3,2013-01-29 08:38:00,
2013-01-29 03:43:00,38.4,37.1,30.10,WSW,241,0.0,0.0,95,0.00,,,0.01,WeatherCatV1.02B3,2013-01-29 08:43:00,
2013-01-29 03:48:00,38.3,37.0,30.10,WSW,242,0.0,0.0,95,0.00,,,0.01,WeatherCatV1.02B3,2013-01-29 08:48:00,
2013-01-29 03:53:00,38.3,37.0,30.10,WSW,242,0.0,0.0,95,0.00,,,0.01,WeatherCatV1.02B3,2013-01-29 08:53:00,
2013-01-29 03:58:00,38.3,37.0,30.10,WSW,241,0.0,0.0,95,0.00,,,0.01,WeatherCatV1.02B3,2013-01-29 08:58:00,
2013-01-29 04:03:00,38.4,37.1,30.11,WSW,242,0.0,0.0,95,0.00,,,0.01,WeatherCatV1.02B3,2013-01-29 09:03:00,
2013-01-29 04:08:00,38.3,37.0,30.10,WSW,242,0.0,0.0,95,0.00,,,0.01,WeatherCatV1.02B3,2013-01-29 09:08:00,
2013-01-29 04:14:00,38.4,37.1,30.10,WSW,241,0.0,0.0,95,0.00,,,0.01,WeatherCatV1.02B3,2013-01-29 09:14:00,
2013-01-29 04:18:00,38.8,37.5,30.09,WSW,241,0.0,0.0,95,0.00,,,0.01,WeatherCatV1.02B3,2013-01-29 09:18:00,
2013-01-29 04:23:00,39.1,37.8,30.09,WSW,242,0.0,0.0,95,0.00,,,0.01,WeatherCatV1.02B3,2013-01-29 09:23:00,
2013-01-29 04:28:00,39.0,37.7,30.09,WSW,242,0.0,0.0,95,0.00,,,0.01,WeatherCatV1.02B3,2013-01-29 09:28:00,
2013-01-29 04:33:00,38.9,37.6,30.09,WSW,242,0.0,0.0,95,0.00,,,0.01,WeatherCatV1.02B3,2013-01-29 09:33:00,
2013-01-29 04:38:00,38.8,37.5,30.09,WSW,241,0.0,0.0,95,0.00,,,0.01,WeatherCatV1.02B3,2013-01-29 09:38:00,
2013-01-29 04:43:00,38.9,37.6,30.09,WSW,242,0.0,0.0,95,0.00,,,0.01,WeatherCatV1.02B3,2013-01-29 09:43:00,
2013-01-29 04:48:00,38.9,37.6,30.09,WSW,242,0.0,0.0,95,0.00,,,0.01,WeatherCatV1.02B3,2013-01-29 09:48:00,
2013-01-29 04:54:00,38.9,37.6,30.09,WSW,241,0.0,0.0,95,0.00,,,0.01,WeatherCatV1.02B3,2013-01-29 09:54:00,
2013-01-29 04:59:00,39.0,37.7,30.08,WSW,242,0.0,0.0,95,0.00,,,0.01,WeatherCatV1.02B3,2013-01-29 09:59:00,
2013-01-29 05:04:00,39.0,37.7,30.08,WSW,242,0.0,0.0,95,0.00,,,0.01,WeatherCatV1.02B3,2013-01-29 10:04:00,
2013-01-29 05:09:00,39.0,37.7,30.08,WSW,242,0.0,0.0,95,0.00,,,0.01,WeatherCatV1.02B3,2013-01-29 10:09:00,
2013-01-29 05:14:00,39.0,37.7,30.08,WSW,241,0.0,0.0,95,0.00,,,0.01,WeatherCatV1.02B3,2013-01-29 10:14:00,
2013-01-29 05:19:00,39.0,37.7,30.08,WSW,242,0.0,0.0,95,0.00,,,0.01,WeatherCatV1.02B3,2013-01-29 10:19:00,
2013-01-29 05:24:00,39.0,37.7,30.08,WSW,242,0.0,0.0,95,0.00,,,0.01,WeatherCatV1.02B3,2013-01-29 10:24:00,
2013-01-29 05:29:00,39.1,37.8,30.08,WSW,241,0.0,0.0,95,0.00,,,0.01,WeatherCatV1.02B3,2013-01-29 10:29:00,
2013-01-29 05:34:00,39.1,37.8,30.08,WSW,242,0.0,0.0,95,0.00,,,0.01,WeatherCatV1.02B3,2013-01-29 10:34:00,
2013-01-29 05:39:00,39.2,37.9,30.07,WSW,242,0.0,0.0,95,0.00,,,0.01,WeatherCatV1.02B3,2013-01-29 10:39:00,
2013-01-29 05:44:00,39.3,38.0,30.08,WSW,242,0.0,0.0,95,0.00,,,0.01,WeatherCatV1.02B3,2013-01-29 10:44:00,
2013-01-29 05:49:00,39.3,38.0,30.08,WSW,242,0.0,0.0,95,0.00,,,0.01,WeatherCatV1.02B3,2013-01-29 10:49:00,
2013-01-29 05:54:00,39.3,38.0,30.07,WSW,241,0.0,0.0,95,0.00,,,0.01,WeatherCatV1.02B3,2013-01-29 10:54:00,
2013-01-29 05:59:00,39.4,38.1,30.07,WSW,242,0.0,0.0,95,0.00,,,0.01,WeatherCatV1.02B3,2013-01-29 10:59:00,
2013-01-29 06:04:00,39.4,38.1,30.07,WSW,241,0.0,0.0,95,0.00,,,0.01,WeatherCatV1.02B3,2013-01-29 11:04:00,
2013-01-29 06:09:00,39.2,37.9,30.06,WSW,241,0.0,0.0,95,0.00,,,0.01,WeatherCatV1.02B3,2013-01-29 11:09:00,
2013-01-29 06:14:00,39.3,38.0,30.06,WSW,242,0.0,0.0,95,0.00,,,0.01,WeatherCatV1.02B3,2013-01-29 11:14:00,
2013-01-29 06:19:00,39.3,38.0,30.06,WSW,242,0.0,0.0,95,0.00,,,0.01,WeatherCatV1.02B3,2013-01-29 11:19:00,
2013-01-29 06:24:00,39.3,38.0,30.05,WSW,242,0.0,0.0,95,0.00,,,0.01,WeatherCatV1.02B3,2013-01-29 11:24:00,
2013-01-29 06:29:00,39.9,38.6,30.06,WSW,241,0.0,0.0,95,0.00,,,0.01,WeatherCatV1.02B3,2013-01-29 11:29:00,
2013-01-29 06:34:00,40.2,38.9,30.05,SSE,159,0.0,1.0,95,0.00,,,0.01,WeatherCatV1.02B3,2013-01-29 11:34:00,
2013-01-29 06:39:00,40.4,39.1,30.06,SSE,159,0.0,0.0,95,0.00,,,0.01,WeatherCatV1.02B3,2013-01-29 11:39:00,
2013-01-29 06:44:00,40.4,39.1,30.06,SSE,157,0.0,0.0,95,0.00,,,0.01,WeatherCatV1.02B3,2013-01-29 11:44:00,
2013-01-29 06:49:00,40.6,39.3,30.05,SSE,158,0.0,0.0,95,0.00,,,0.01,WeatherCatV1.02B3,2013-01-29 11:49:00,
2013-01-29 06:54:00,40.6,39.3,30.04,SSE,158,0.0,0.0,95,0.00,,,0.01,WeatherCatV1.02B3,2013-01-29 11:54:00,
2013-01-29 06:59:00,40.6,39.3,30.04,SSE,158,0.0,0.0,95,0.00,,,0.01,WeatherCatV1.02B3,2013-01-29 11:59:00,
2013-01-29 07:04:00,40.9,39.6,30.04,SSE,158,1.0,2.0,95,0.00,,,0.01,WeatherCatV1.02B3,2013-01-29 12:04:00,
2013-01-29 07:09:00,41.6,40.3,30.03,SSE,158,1.0,2.0,95,0.00,,,0.01,WeatherCatV1.02B3,2013-01-29 12:09:00,
2013-01-29 07:14:00,41.9,40.8,30.03,SSE,158,0.0,2.0,96,0.00,,,0.01,WeatherCatV1.02B3,2013-01-29 12:14:00,
2013-01-29 07:19:00,42.1,40.8,30.03,SSE,158,0.0,0.0,95,0.00,,,0.01,WeatherCatV1.02B3,2013-01-29 12:19:00,
2013-01-29 07:24:00,42.4,41.3,30.03,SSE,158,0.0,0.0,96,0.00,,,0.01,WeatherCatV1.02B3,2013-01-29 12:24:00,
2013-01-29 07:29:00,42.5,41.4,30.03,SE,138,0.0,0.0,96,0.00,,,0.01,WeatherCatV1.02B3,2013-01-29 12:29:00,
2013-01-29 07:34:00,42.6,41.5,30.03,SE,138,0.0,0.0,96,0.00,,,0.01,WeatherCatV1.02B3,2013-01-29 12:34:00,
2013-01-29 07:39:00,43.2,42.1,30.02,SE,137,1.0,3.0,96,0.00,,,0.01,WeatherCatV1.02B3,2013-01-29 12:39:00,
2013-01-29 07:44:00,43.9,42.8,30.02,ESE,109,0.0,5.0,96,0.00,,,0.01,WeatherCatV1.02B3,2013-01-29 12:44:00,
2013-01-29 07:49:00,44.2,43.1,30.02,ESE,109,0.0,2.0,96,0.00,,,0.01,WeatherCatV1.02B3,2013-01-29 12:49:00,
2013-01-29 07:54:00,44.5,43.4,30.02,ESE,109,0.0,0.0,96,0.00,,,0.01,WeatherCatV1.02B3,2013-01-29 12:54:00,
2013-01-29 07:59:00,44.8,43.7,30.03,SSW,206,0.0,0.0,96,0.33,,,0.03,WeatherCatV1.02B3,2013-01-29 12:59:00,
2013-01-29 08:04:00,45.1,44.0,30.04,SSW,206,2.0,3.0,96,0.17,,,0.04,WeatherCatV1.02B3,2013-01-29 13:04:00,
2013-01-29 08:09:00,45.6,44.5,30.04,SSW,201,1.0,3.0,96,0.62,,,0.08,WeatherCatV1.02B3,2013-01-29 13:09:00,
2013-01-29 08:14:00,45.7,44.6,30.04,SSW,200,0.0,3.0,96,0.38,,,0.11,WeatherCatV1.02B3,2013-01-29 13:14:00,
2013-01-29 08:19:00,45.4,44.3,30.04,East,84,2.0,2.0,96,0.22,,,0.13,WeatherCatV1.02B3,2013-01-29 13:19:00,
2013-01-29 08:24:00,45.7,44.6,30.02,SE,134,2.0,4.0,96,0.08,,,0.13,WeatherCatV1.02B3,2013-01-29 13:24:00,
2013-01-29 08:29:00,46.4,45.3,30.01,SSE,152,2.0,6.0,96,0.05,,,0.13,WeatherCatV1.02B3,2013-01-29 13:29:00,
2013-01-29 08:34:00,46.7,45.6,30.01,SSE,150,6.0,6.0,96,0.00,,,0.13,WeatherCatV1.02B3,2013-01-29 13:34:00,
2013-01-29 08:39:00,46.9,45.8,30.00,ESE,118,4.0,6.0,96,0.00,,,0.13,WeatherCatV1.02B3,2013-01-29 13:39:00,
2013-01-29 08:44:00,46.9,45.8,29.99,SSE,168,2.0,12.0,96,0.00,,,0.13,WeatherCatV1.02B3,2013-01-29 13:44:00,
2013-01-29 08:49:00,47.1,46.0,29.99,ESE,116,4.0,6.0,96,0.00,,,0.13,WeatherCatV1.02B3,2013-01-29 13:49:00,
2013-01-29 08:54:00,47.2,46.1,29.98,SSW,196,1.0,6.0,96,0.00,,,0.13,WeatherCatV1.02B3,2013-01-29 13:54:00,
2013-01-29 08:59:00,47.3,46.2,29.99,SE,128,0.0,5.0,96,0.00,,,0.13,WeatherCatV1.02B3,2013-01-29 13:59:00,
2013-01-29 09:04:00,47.2,46.1,29.99,SE,127,2.0,5.0,96,0.00,,,0.13,WeatherCatV1.02B3,2013-01-29 14:04:00,
2013-01-29 09:09:00,47.7,46.6,29.99,SE,140,2.0,4.0,96,0.00,,,0.13,WeatherCatV1.02B3,2013-01-29 14:09:00,
2013-01-29 09:14:00,48.1,47.0,29.99,SE,145,0.0,4.0,96,0.00,,,0.13,WeatherCatV1.02B3,2013-01-29 14:14:00,
2013-01-29 09:19:00,48.4,47.3,29.98,East,94,0.0,2.0,96,0.00,,,0.13,WeatherCatV1.02B3,2013-01-29 14:19:00,
2013-01-29 09:24:00,48.7,47.6,29.99,SE,140,2.0,4.0,96,0.00,,,0.13,WeatherCatV1.02B3,2013-01-29 14:24:00,
2013-01-29 09:29:00,49.1,48.0,29.98,SSE,150,2.0,4.0,96,0.00,,,0.13,WeatherCatV1.02B3,2013-01-29 14:29:00,
2013-01-29 09:34:00,49.1,48.0,29.98,SE,132,3.0,5.0,96,0.00,,,0.13,WeatherCatV1.02B3,2013-01-29 14:34:00,
2013-01-29 09:40:00,49.7,48.6,29.97,East,95,4.0,5.0,96,0.00,,,0.13,WeatherCatV1.02B3,2013-01-29 14:40:00,
2013-01-29 09:45:00,49.9,48.8,29.97,ESE,111,4.0,7.0,96,0.00,,,0.13,WeatherCatV1.02B3,2013-01-29 14:45:00,
2013-01-29 09:50:00,50.2,49.1,29.96,SE,141,1.0,11.0,96,0.00,,,0.13,WeatherCatV1.02B3,2013-01-29 14:50:00,
2013-01-29 09:55:00,50.2,49.1,29.96,ESE,113,5.0,13.0,96,0.00,,,0.13,WeatherCatV1.02B3,2013-01-29 14:55:00,
2013-01-29 10:00:00,50.4,49.3,29.95,SE,136,2.0,7.0,96,0.00,,,0.13,WeatherCatV1.02B3,2013-01-29 15:00:00,
2013-01-29 10:05:00,50.7,49.6,29.95,South,173,1.0,7.0,96,0.00,,,0.13,WeatherCatV1.02B3,2013-01-29 15:05:00,
2013-01-29 10:11:00,50.8,49.7,29.95,SSE,148,1.0,7.0,96,0.00,,,0.13,WeatherCatV1.02B3,2013-01-29 15:11:00,
2013-01-29 10:16:00,50.8,49.7,29.96,ESE,113,6.0,8.0,96,0.00,,,0.13,WeatherCatV1.02B3,2013-01-29 15:16:00,
2013-01-29 10:21:00,51.0,49.9,29.96,SSE,149,3.0,11.0,96,0.00,,,0.13,WeatherCatV1.02B3,2013-01-29 15:21:00,
2013-01-29 10:26:00,51.1,50.0,29.95,WSW,239,1.0,11.0,96,0.00,,,0.13,WeatherCatV1.02B3,2013-01-29 15:26:00,
2013-01-29 10:31:00,51.0,49.9,29.96,SW,222,4.0,5.0,96,0.00,,,0.13,WeatherCatV1.02B3,2013-01-29 15:31:00,
2013-01-29 10:36:00,50.9,49.8,29.96,ESE,113,3.0,3.0,96,0.00,,,0.13,WeatherCatV1.02B3,2013-01-29 15:36:00,
2013-01-29 10:41:00,51.1,50.0,29.96,SSE,163,1.0,4.0,96,0.00,,,0.13,WeatherCatV1.02B3,2013-01-29 15:41:00,
2013-01-29 10:46:00,51.4,50.3,29.96,SSE,158,1.0,4.0,96,0.00,,,0.13,WeatherCatV1.02B3,2013-01-29 15:46:00,
2013-01-29 10:51:00,51.6,50.5,29.97,SSW,209,3.0,3.0,96,0.00,,,0.13,WeatherCatV1.02B3,2013-01-29 15:51:00,
2013-01-29 10:56:00,51.7,50.6,29.97,SSE,165,0.0,2.0,96,0.00,,,0.13,WeatherCatV1.02B3,2013-01-29 15:56:00,
2013-01-29 11:01:00,51.8,50.7,29.97,SSW,201,3.0,5.0,96,0.00,,,0.13,WeatherCatV1.02B3,2013-01-29 16:01:00,
2013-01-29 11:06:00,51.9,50.8,29.97,SSW,200,0.0,3.0,96,0.00,,,0.13,WeatherCatV1.02B3,2013-01-29 16:06:00,
2013-01-29 11:11:00,52.2,51.1,29.97,SW,221,3.0,6.0,96,0.00,,,0.13,WeatherCatV1.02B3,2013-01-29 16:11:00,
2013-01-29 11:16:00,52.2,51.1,29.99,WSW,238,3.0,5.0,96,0.00,,,0.13,WeatherCatV1.02B3,2013-01-29 16:16:00,
2013-01-29 11:21:00,52.2,51.1,30.01,WSW,244,2.0,5.0,96,0.00,,,0.13,WeatherCatV1.02B3,2013-01-29 16:21:00,
2013-01-29 11:26:00,52.0,50.9,30.01,South,178,4.0,5.0,96,0.00,,,0.14,WeatherCatV1.02B3,2013-01-29 16:26:00,
2013-01-29 11:31:00,51.8,50.7,30.00,SSW,210,0.0,4.0,96,0.12,,,0.15,WeatherCatV1.02B3,2013-01-29 16:31:00,
2013-01-29 11:36:00,51.5,50.4,29.99,ESE,115,2.0,2.0,96,0.49,,,0.21,WeatherCatV1.02B3,2013-01-29 16:36:00,
2013-01-29 11:41:00,51.2,50.1,29.99,SSE,150,2.0,3.0,96,0.09,,,0.21,WeatherCatV1.02B3,2013-01-29 16:41:00,
2013-01-29 11:46:00,51.2,50.1,29.98,ESE,118,3.0,4.0,96,0.05,,,0.21,WeatherCatV1.02B3,2013-01-29 16:46:00,
2013-01-29 11:51:00,51.4,50.3,29.97,SE,127,3.0,4.0,96,0.04,,,0.21,WeatherCatV1.02B3,2013-01-29 16:51:00,
2013-01-29 11:56:00,51.5,50.4,29.97,ESE,115,2.0,4.0,96,0.00,,,0.21,WeatherCatV1.02B3,2013-01-29 16:56:00,
2013-01-29 12:01:00,51.6,50.5,29.96,SE,131,0.0,3.0,96,0.00,,,0.21,WeatherCatV1.02B3,2013-01-29 17:01:00,
2013-01-29 12:06:00,51.7,50.6,29.96,ESE,121,0.0,3.0,96,0.00,,,0.21,WeatherCatV1.02B3,2013-01-29 17:06:00,
2013-01-29 12:11:00,51.8,50.7,29.96,ESE,105,0.0,3.0,96,0.00,,,0.21,WeatherCatV1.02B3,2013-01-29 17:11:00,
2013-01-29 12:16:00,52.0,50.9,29.95,ESE,117,3.0,4.0,96,0.00,,,0.21,WeatherCatV1.02B3,2013-01-29 17:16:00,
2013-01-29 12:21:00,52.1,51.0,29.95,ESE,123,1.0,4.0,96,0.00,,,0.21,WeatherCatV1.02B3,2013-01-29 17:21:00,
2013-01-29 12:26:00,52.4,51.3,29.95,ESE,119,3.0,3.0,96,0.00,,,0.21,WeatherCatV1.02B3,2013-01-29 17:26:00,
2013-01-29 12:31:00,52.5,51.4,29.95,SE,124,0.0,3.0,96,0.00,,,0.21,WeatherCatV1.02B3,2013-01-29 17:31:00,
2013-01-29 12:36:00,52.8,51.7,29.94,SE,126,2.0,5.0,96,0.00,,,0.21,WeatherCatV1.02B3,2013-01-29 17:36:00,
2013-01-29 12:41:00,53.1,52.0,29.94,SE,138,3.0,5.0,96,0.00,,,0.21,WeatherCatV1.02B3,2013-01-29 17:41:00,
2013-01-29 12:46:00,53.2,52.1,29.94,SE,132,0.0,1.0,96,0.00,,,0.21,WeatherCatV1.02B3,2013-01-29 17:46:00,
2013-01-29 12:51:00,53.5,52.4,29.93,ESE,114,4.0,4.0,96,0.00,,,0.21,WeatherCatV1.02B3,2013-01-29 17:51:00,
2013-01-29 12:56:00,53.8,52.7,29.93,SE,132,2.0,4.0,96,0.00,,,0.21,WeatherCatV1.02B3,2013-01-29 17:56:00,
2013-01-29 13:01:00,54.0,52.9,29.93,SE,125,0.0,5.0,96,0.00,,,0.21,WeatherCatV1.02B3,2013-01-29 18:01:00,
2013-01-29 13:06:00,54.0,52.9,29.94,SE,131,0.0,4.0,96,0.00,,,0.21,WeatherCatV1.02B3,2013-01-29 18:06:00,
2013-01-29 13:11:00,54.0,52.9,29.93,SE,137,0.0,3.0,96,0.00,,,0.21,WeatherCatV1.02B3,2013-01-29 18:11:00,
2013-01-29 13:16:00,54.2,53.1,29.93,ESE,123,0.0,4.0,96,0.00,,,0.21,WeatherCatV1.02B3,2013-01-29 18:16:00,
2013-01-29 13:21:00,54.2,53.1,29.93,SE,129,1.0,4.0,96,0.00,,,0.21,WeatherCatV1.02B3,2013-01-29 18:21:00,
2013-01-29 13:26:00,54.5,53.4,29.92,ESE,121,3.0,4.0,96,0.00,,,0.21,WeatherCatV1.02B3,2013-01-29 18:26:00,
2013-01-29 13:31:00,54.5,53.4,29.92,ESE,123,0.0,2.0,96,0.00,,,0.21,WeatherCatV1.02B3,2013-01-29 18:31:00,
2013-01-29 13:36:00,54.5,53.4,29.92,SE,132,1.0,4.0,96,0.00,,,0.21,WeatherCatV1.02B3,2013-01-29 18:36:00,
2013-01-29 13:41:00,54.6,53.5,29.92,ESE,118,3.0,5.0,96,0.00,,,0.21,WeatherCatV1.02B3,2013-01-29 18:41:00,
2013-01-29 13:46:00,55.0,53.9,29.92,SE,124,0.0,1.0,96,0.00,,,0.21,WeatherCatV1.02B3,2013-01-29 18:46:00,
2013-01-29 13:51:00,55.1,53.7,29.92,SE,136,0.0,2.0,95,0.00,,,0.21,WeatherCatV1.02B3,2013-01-29 18:51:00,
2013-01-29 13:56:00,55.0,53.6,29.92,SSW,192,0.0,2.0,95,0.00,,,0.21,WeatherCatV1.02B3,2013-01-29 18:56:00,
2013-01-29 14:01:00,54.9,53.5,29.92,ESE,123,2.0,3.0,95,0.00,,,0.21,WeatherCatV1.02B3,2013-01-29 19:01:00,
2013-01-29 14:06:00,55.2,53.8,29.92,SE,126,2.0,3.0,95,0.00,,,0.21,WeatherCatV1.02B3,2013-01-29 19:06:00,
2013-01-29 14:11:00,55.4,54.0,29.91,SE,136,0.0,5.0,95,0.00,,,0.21,WeatherCatV1.02B3,2013-01-29 19:11:00,
2013-01-29 14:16:00,55.5,54.1,29.91,ESE,115,1.0,5.0,95,0.00,,,0.21,WeatherCatV1.02B3,2013-01-29 19:16:00,
2013-01-29 14:21:00,55.6,53.9,29.91,SSE,155,0.0,5.0,94,0.00,,,0.21,WeatherCatV1.02B3,2013-01-29 19:21:00,
2013-01-29 14:26:00,55.6,53.9,29.91,SE,136,1.0,2.0,94,0.00,,,0.21,WeatherCatV1.02B3,2013-01-29 19:26:00,
2013-01-29 14:31:00,55.9,54.2,29.90,SE,146,2.0,5.0,94,0.00,,,0.21,WeatherCatV1.02B3,2013-01-29 19:31:00,
2013-01-29 14:36:00,56.1,54.1,29.90,SE,133,0.0,4.0,93,0.00,,,0.21,WeatherCatV1.02B3,2013-01-29 19:36:00,
2013-01-29 14:41:00,56.1,54.1,29.90,SSW,196,0.0,1.0,93,0.00,,,0.21,WeatherCatV1.02B3,2013-01-29 19:41:00,
2013-01-29 14:46:00,56.1,54.1,29.90,ESE,121,1.0,4.0,93,0.00,,,0.21,WeatherCatV1.02B3,2013-01-29 19:46:00,
2013-01-29 14:51:00,56.3,54.0,29.90,SE,136,0.0,1.0,92,0.00,,,0.21,WeatherCatV1.02B3,2013-01-29 19:51:00,
2013-01-29 14:56:00,56.3,54.0,29.90,SSW,196,0.0,4.0,92,0.00,,,0.21,WeatherCatV1.02B3,2013-01-29 19:56:00,
2013-01-29 15:01:00,56.3,54.0,29.90,ESE,119,2.0,3.0,92,0.00,,,0.21,WeatherCatV1.02B3,2013-01-29 20:01:00,
2013-01-29 15:06:00,56.5,54.2,29.90,ESE,121,2.0,3.0,92,0.00,,,0.21,WeatherCatV1.02B3,2013-01-29 20:06:00,
2013-01-29 15:11:00,56.6,54.0,29.90,SSE,157,0.0,4.0,91,0.00,,,0.21,WeatherCatV1.02B3,2013-01-29 20:11:00,
2013-01-29 15:16:00,56.8,54.2,29.90,SE,128,0.0,3.0,91,0.00,,,0.21,WeatherCatV1.02B3,2013-01-29 20:16:00,
2013-01-29 15:21:00,56.8,54.2,29.90,SW,229,2.0,2.0,91,0.00,,,0.21,WeatherCatV1.02B3,2013-01-29 20:21:00,
2013-01-29 15:26:00,57.0,54.4,29.90,ESE,110,0.0,10.0,91,0.00,,,0.21,WeatherCatV1.02B3,2013-01-29 20:26:00,
2013-01-29 15:31:00,57.0,54.1,29.90,SE,136,0.0,1.0,90,0.00,,,0.21,WeatherCatV1.02B3,2013-01-29 20:31:00,
2013-01-29 15:36:00,56.8,53.9,29.90,SE,132,5.0,6.0,90,0.00,,,0.21,WeatherCatV1.02B3,2013-01-29 20:36:00,
2013-01-29 15:41:00,57.2,54.3,29.90,SE,134,0.0,3.0,90,0.00,,,0.21,WeatherCatV1.02B3,2013-01-29 20:41:00,
2013-01-29 15:46:00,57.2,54.3,29.90,SSW,205,2.0,7.0,90,0.00,,,0.21,WeatherCatV1.02B3,2013-01-29 20:46:00,
2013-01-29 15:51:00,57.3,54.4,29.90,SE,130,2.0,7.0,90,0.00,,,0.21,WeatherCatV1.02B3,2013-01-29 20:51:00,
2013-01-29 15:56:00,57.1,54.2,29.90,ESE,109,2.0,3.0,90,0.00,,,0.21,WeatherCatV1.02B3,2013-01-29 20:56:00,
2013-01-29 16:01:00,57.2,54.3,29.90,SE,131,0.0,5.0,90,0.00,,,0.21,WeatherCatV1.02B3,2013-01-29 21:01:00,
2013-01-29 16:06:00,57.3,54.4,29.89,SE,144,1.0,4.0,90,0.00,,,0.21,WeatherCatV1.02B3,2013-01-29 21:06:00,
2013-01-29 16:11:00,57.4,54.5,29.90,SSE,161,1.0,4.0,90,0.00,,,0.21,WeatherCatV1.02B3,2013-01-29 21:11:00,
2013-01-29 16:16:00,57.6,54.7,29.90,SE,129,3.0,4.0,90,0.00,,,0.21,WeatherCatV1.02B3,2013-01-29 21:16:00,
2013-01-29 16:21:00,57.5,54.3,29.90,SE,125,5.0,5.0,89,0.00,,,0.21,WeatherCatV1.02B3,2013-01-29 21:21:00,
2013-01-29 16:26:00,57.7,54.5,29.89,SW,229,0.0,10.0,89,0.00,,,0.21,WeatherCatV1.02B3,2013-01-29 21:26:00,
2013-01-29 16:31:00,57.9,54.7,29.89,SE,124,5.0,7.0,89,0.00,,,0.21,WeatherCatV1.02B3,2013-01-29 21:31:00,
2013-01-29 16:34:00,57.8,54.6,29.89,SE,125,0.0,7.0,89,0.00,,,0.21,WeatherCatV1.02B3,2013-01-29 21:34:00,
2013-01-29 16:39:00,57.5,54.3,29.89,SE,137,2.0,3.0,89,0.00,,,0.21,WeatherCatV1.02B3,2013-01-29 21:39:00,
2013-01-29 16:44:00,57.7,54.5,29.89,SE,136,0.0,9.0,89,0.00,,,0.21,WeatherCatV1.02B3,2013-01-29 21:44:00,
2013-01-29 16:49:00,57.8,54.9,29.88,ESE,115,0.0,7.0,90,0.00,,,0.21,WeatherCatV1.02B3,2013-01-29 21:49:00,
2013-01-29 16:54:00,57.5,54.6,29.88,ESE,119,1.0,6.0,90,0.00,,,0.21,WeatherCatV1.02B3,2013-01-29 21:54:00,
2013-01-29 16:59:00,57.5,54.6,29.89,SE,130,2.0,4.0,90,0.00,,,0.21,WeatherCatV1.02B3,2013-01-29 21:59:00,
2013-01-29 17:04:00,57.4,54.8,29.89,SE,139,1.0,6.0,91,0.00,,,0.21,WeatherCatV1.02B3,2013-01-29 22:04:00,
2013-01-29 17:09:00,57.2,54.6,29.89,ESE,113,5.0,5.0,91,0.00,,,0.21,WeatherCatV1.02B3,2013-01-29 22:09:00,
2013-01-29 17:14:00,57.1,54.5,29.88,SE,129,6.0,6.0,91,0.00,,,0.21,WeatherCatV1.02B3,2013-01-29 22:14:00,
2013-01-29 17:19:00,57.3,55.0,29.88,SE,141,0.0,5.0,92,0.00,,,0.21,WeatherCatV1.02B3,2013-01-29 22:19:00,
2013-01-29 17:24:00,57.2,54.9,29.88,SE,145,4.0,4.0,92,0.00,,,0.21,WeatherCatV1.02B3,2013-01-29 22:24:00,
2013-01-29 17:29:00,57.2,54.9,29.88,SE,132,4.0,4.0,92,0.00,,,0.21,WeatherCatV1.02B3,2013-01-29 22:29:00,
2013-01-29 17:34:00,57.2,54.9,29.88,SE,142,3.0,7.0,92,0.00,,,0.21,WeatherCatV1.02B3,2013-01-29 22:34:00,
2013-01-29 17:39:00,57.3,55.0,29.88,SE,135,2.0,6.0,92,0.00,,,0.21,WeatherCatV1.02B3,2013-01-29 22:39:00,
2013-01-29 17:44:00,57.2,54.9,29.88,SSE,151,2.0,2.0,92,0.00,,,0.22,WeatherCatV1.02B3,2013-01-29 22:44:00,
2013-01-29 17:49:00,57.3,55.0,29.88,ESE,113,4.0,6.0,92,0.00,,,0.22,WeatherCatV1.02B3,2013-01-29 22:49:00,
2013-01-29 17:54:00,57.3,55.3,29.88,SE,134,4.0,9.0,93,0.00,,,0.22,WeatherCatV1.02B3,2013-01-29 22:54:00,
2013-01-29 17:59:00,57.3,55.3,29.87,SSE,160,3.0,4.0,93,0.05,,,0.23,WeatherCatV1.02B3,2013-01-29 22:59:00,
2013-01-29 18:04:00,57.2,55.2,29.88,SE,136,0.0,6.0,93,0.05,,,0.23,WeatherCatV1.02B3,2013-01-29 23:04:00,
2013-01-29 18:09:00,57.2,55.2,29.87,East,94,1.0,6.0,93,0.05,,,0.23,WeatherCatV1.02B3,2013-01-29 23:09:00,
2013-01-29 18:14:00,57.0,55.0,29.88,SE,125,1.0,6.0,93,0.00,,,0.24,WeatherCatV1.02B3,2013-01-29 23:14:00,
2013-01-29 18:19:00,57.0,55.0,29.88,SE,134,5.0,5.0,93,0.00,,,0.24,WeatherCatV1.02B3,2013-01-29 23:19:00,
2013-01-29 18:24:00,57.1,55.1,29.88,SE,137,4.0,7.0,93,0.07,,,0.25,WeatherCatV1.02B3,2013-01-29 23:24:00,
2013-01-29 18:29:00,57.3,55.3,29.87,SE,138,3.0,7.0,93,0.07,,,0.25,WeatherCatV1.02B3,2013-01-29 23:29:00,
2013-01-29 18:34:00,57.0,55.0,29.88,SE,140,0.0,5.0,93,0.05,,,0.25,WeatherCatV1.02B3,2013-01-29 23:34:00,
2013-01-29 18:39:00,56.8,54.8,29.87,ESE,106,5.0,6.0,93,0.04,,,0.26,WeatherCatV1.02B3,2013-01-29 23:39:00,
2013-01-29 18:44:00,57.2,55.5,29.86,ESE,117,5.0,5.0,94,0.04,,,0.26,WeatherCatV1.02B3,2013-01-29 23:44:00,
2013-01-29 18:49:00,57.3,55.6,29.86,SE,134,3.0,7.0,94,0.09,,,0.27,WeatherCatV1.02B3,2013-01-29 23:49:00,
2013-01-29 18:54:00,57.4,55.7,29.87,ESE,122,3.0,6.0,94,0.07,,,0.27,WeatherCatV1.02B3,2013-01-29 23:54:00,
2013-01-29 18:59:00,57.7,56.0,29.86,SE,145,2.0,5.0,94,0.04,,,0.27,WeatherCatV1.02B3,2013-01-29 23:59:00,
2013-01-29 19:04:00,57.8,55.8,29.86,ESE,118,0.0,5.0,93,0.00,,,0.27,WeatherCatV1.02B3,2013-01-30 00:04:00,
2013-01-29 19:09:00,57.8,55.8,29.86,SE,128,2.0,5.0,93,0.00,,,0.27,WeatherCatV1.02B3,2013-01-30 00:09:00,
2013-01-29 19:14:00,57.8,55.8,29.85,SE,128,2.0,5.0,93,0.35,,,0.29,WeatherCatV1.02B3,2013-01-30 00:14:00,
2013-01-29 19:19:00,57.6,55.6,29.85,SE,124,5.0,8.0,93,0.19,,,0.30,WeatherCatV1.02B3,2013-01-30 00:19:00,
2013-01-29 19:24:00,57.6,55.6,29.85,SE,126,5.0,7.0,93,0.11,,,0.31,WeatherCatV1.02B3,2013-01-30 00:24:00,
2013-01-29 19:29:00,57.7,55.7,29.85,ESE,109,4.0,6.0,93,0.09,,,0.31,WeatherCatV1.02B3,2013-01-30 00:29:00,
2013-01-29 19:34:00,57.8,55.8,29.84,SSE,160,5.0,9.0,93,0.05,,,0.31,WeatherCatV1.02B3,2013-01-30 00:34:00,
2013-01-29 19:40:00,57.8,55.5,29.84,ESE,122,3.0,7.0,92,0.00,,,0.31,WeatherCatV1.02B3,2013-01-30 00:40:00,
2013-01-29 19:45:00,57.8,55.5,29.85,SE,138,2.0,5.0,92,0.00,,,0.32,WeatherCatV1.02B3,2013-01-30 00:45:00,
2013-01-29 19:50:00,57.7,55.4,29.84,SE,141,4.0,6.0,92,0.16,,,0.34,WeatherCatV1.02B3,2013-01-30 00:50:00,
2013-01-29 19:55:00,57.7,55.4,29.84,SE,138,8.0,9.0,92,0.21,,,0.35,WeatherCatV1.02B3,2013-01-30 00:55:00,
2013-01-29 20:00:00,57.6,55.3,29.84,SE,144,2.0,4.0,92,0.10,,,0.36,WeatherCatV1.02B3,2013-01-30 01:00:00,
2013-01-29 20:05:00,57.5,55.2,29.84,SE,133,2.0,8.0,92,0.09,,,0.36,WeatherCatV1.02B3,2013-01-30 01:05:00,
2013-01-29 20:10:00,57.3,55.0,29.84,SE,128,3.0,3.0,92,0.07,,,0.37,WeatherCatV1.02B3,2013-01-30 01:10:00,
2013-01-29 20:15:00,57.4,55.1,29.83,SE,130,3.0,6.0,92,0.07,,,0.37,WeatherCatV1.02B3,2013-01-30 01:15:00,
2013-01-29 20:20:00,57.6,55.3,29.83,SE,130,6.0,7.0,92,0.04,,,0.37,WeatherCatV1.02B3,2013-01-30 01:20:00,
2013-01-29 20:25:00,57.8,55.2,29.83,SE,142,3.0,7.0,91,0.00,,,0.37,WeatherCatV1.02B3,2013-01-30 01:25:00,
2013-01-29 20:30:00,57.9,55.0,29.82,SE,136,2.0,5.0,90,0.00,,,0.37,WeatherCatV1.02B3,2013-01-30 01:30:00,
2013-01-29 20:35:00,58.1,55.2,29.82,ESE,116,2.0,5.0,90,0.00,,,0.37,WeatherCatV1.02B3,2013-01-30 01:35:00,
2013-01-29 20:40:00,58.0,54.8,29.82,SE,124,0.0,0.0,89,0.00,,,0.37,WeatherCatV1.02B3,2013-01-30 01:40:00,
2013-01-29 20:45:00,57.9,54.7,29.82,SSE,151,0.0,1.0,89,0.00,,,0.37,WeatherCatV1.02B3,2013-01-30 01:45:00,
2013-01-29 20:50:00,57.6,54.4,29.82,ESE,117,2.0,4.0,89,0.00,,,0.38,WeatherCatV1.02B3,2013-01-30 01:50:00,
2013-01-29 20:55:00,57.4,54.2,29.81,SE,145,2.0,2.0,89,0.00,,,0.38,WeatherCatV1.02B3,2013-01-30 01:55:00,
2013-01-29 21:00:00,57.5,54.3,29.81,ESE,117,0.0,3.0,89,0.00,,,0.38,WeatherCatV1.02B3,2013-01-30 02:00:00,
2013-01-29 21:05:00,57.4,54.2,29.81,SE,132,0.0,4.0,89,0.00,,,0.38,WeatherCatV1.02B3,2013-01-30 02:05:00,
2013-01-29 21:10:00,57.4,54.2,29.81,ESE,111,6.0,6.0,89,0.00,,,0.38,WeatherCatV1.02B3,2013-01-30 02:10:00,
2013-01-29 21:15:00,57.6,54.4,29.80,SE,143,3.0,7.0,89,0.00,,,0.38,WeatherCatV1.02B3,2013-01-30 02:15:00,
2013-01-29 21:20:00,58.1,54.6,29.80,SSE,148,0.0,7.0,88,0.00,,,0.38,WeatherCatV1.02B3,2013-01-30 02:20:00,
2013-01-29 21:25:00,58.2,54.0,29.80,ESE,119,0.0,0.0,86,0.00,,,0.38,WeatherCatV1.02B3,2013-01-30 02:25:00,
2013-01-29 21:30:00,58.2,53.7,29.79,SE,125,2.0,3.0,85,0.00,,,0.38,WeatherCatV1.02B3,2013-01-30 02:30:00,
2013-01-29 21:35:00,58.6,54.1,29.78,SSE,148,0.0,6.0,85,0.00,,,0.38,WeatherCatV1.02B3,2013-01-30 02:35:00,
2013-01-29 21:40:00,58.6,53.8,29.78,SE,142,5.0,5.0,84,0.00,,,0.38,WeatherCatV1.02B3,2013-01-30 02:40:00,
2013-01-29 21:45:00,58.9,54.1,29.78,SE,130,0.0,5.0,84,0.00,,,0.38,WeatherCatV1.02B3,2013-01-30 02:45:00,
2013-01-29 21:50:00,59.0,53.8,29.77,ESE,115,1.0,6.0,83,0.00,,,0.38,WeatherCatV1.02B3,2013-01-30 02:50:00,
2013-01-29 21:55:00,59.3,53.8,29.77,ESE,109,4.0,7.0,82,0.00,,,0.38,WeatherCatV1.02B3,2013-01-30 02:55:00,
2013-01-29 22:00:00,59.7,53.9,29.76,SE,130,4.0,6.0,81,0.00,,,0.38,WeatherCatV1.02B3,2013-01-30 03:00:00,
2013-01-29 22:05:00,59.9,53.7,29.75,ESE,121,4.0,12.0,80,0.00,,,0.38,WeatherCatV1.02B3,2013-01-30 03:05:00,
2013-01-29 22:10:00,60.0,53.8,29.74,SSE,153,0.0,5.0,80,0.00,,,0.38,WeatherCatV1.02B3,2013-01-30 03:10:00,
2013-01-29 22:15:00,60.0,53.8,29.74,SE,125,7.0,11.0,80,0.00,,,0.38,WeatherCatV1.02B3,2013-01-30 03:15:00,
2013-01-29 22:20:00,60.0,53.5,29.74,South,176,0.0,11.0,79,0.00,,,0.38,WeatherCatV1.02B3,2013-01-30 03:20:00,
2013-01-29 22:25:00,60.0,53.5,29.74,ESE,123,7.0,12.0,79,0.00,,,0.38,WeatherCatV1.02B3,2013-01-30 03:25:00,
2013-01-29 22:30:00,60.0,53.5,29.74,SE,133,10.0,11.0,79,0.00,,,0.38,WeatherCatV1.02B3,2013-01-30 03:30:00,
2013-01-29 22:35:00,60.2,53.3,29.73,SSE,149,3.0,12.0,78,0.00,,,0.38,WeatherCatV1.02B3,2013-01-30 03:35:00,
2013-01-29 22:40:00,60.4,53.5,29.73,ESE,120,1.0,10.0,78,0.00,,,0.38,WeatherCatV1.02B3,2013-01-30 03:40:00,
2013-01-29 22:45:00,60.3,53.4,29.72,ESE,113,6.0,10.0,78,0.00,,,0.38,WeatherCatV1.02B3,2013-01-30 03:45:00,
2013-01-29 22:50:00,60.5,53.6,29.72,ESE,118,7.0,16.0,78,0.00,,,0.38,WeatherCatV1.02B3,2013-01-30 03:50:00,
2013-01-29 22:55:00,60.5,53.2,29.72,SE,124,4.0,10.0,77,0.00,,,0.38,WeatherCatV1.02B3,2013-01-30 03:55:00,
2013-01-29 23:01:00,60.8,53.5,29.72,SSE,150,0.0,13.0,77,0.00,,,0.38,WeatherCatV1.02B3,2013-01-30 04:01:00,
2013-01-29 23:06:00,60.8,53.5,29.73,SE,132,5.0,11.0,77,0.00,,,0.38,WeatherCatV1.02B3,2013-01-30 04:06:00,
2013-01-29 23:11:00,60.7,54.1,29.72,ESE,117,1.0,5.0,79,0.00,,,0.38,WeatherCatV1.02B3,2013-01-30 04:11:00,
2013-01-29 23:16:00,60.6,53.3,29.72,ESE,115,6.0,13.0,77,0.00,,,0.38,WeatherCatV1.02B3,2013-01-30 04:16:00,
2013-01-29 23:21:00,60.7,53.4,29.72,SE,134,2.0,7.0,77,0.00,,,0.38,WeatherCatV1.02B3,2013-01-30 04:21:00,
2013-01-29 23:26:00,60.7,53.4,29.71,SE,128,5.0,9.0,77,0.00,,,0.38,WeatherCatV1.02B3,2013-01-30 04:26:00,
2013-01-29 23:31:00,60.9,53.6,29.71,SE,140,9.0,12.0,77,0.00,,,0.38,WeatherCatV1.02B3,2013-01-30 04:31:00,
2013-01-29 23:36:00,60.9,53.3,29.70,SE,142,2.0,11.0,76,0.00,,,0.38,WeatherCatV1.02B3,2013-01-30 04:36:00,
2013-01-29 23:41:00,61.2,53.6,29.69,South,178,0.0,11.0,76,0.00,,,0.38,WeatherCatV1.02B3,2013-01-30 04:41:00,
2013-01-29 23:46:00,61.3,53.7,29.69,SE,131,3.0,12.0,76,0.00,,,0.38,WeatherCatV1.02B3,2013-01-30 04:46:00,
2013-01-29 23:51:00,61.3,53.7,29.69,ESE,122,0.0,10.0,76,0.00,,,0.38,WeatherCatV1.02B3,2013-01-30 04:51:00,
2013-01-29 23:56:00,61.4,53.8,29.69,ESE,103,5.0,13.0,76,0.00,,,0.38,WeatherCatV1.02B3,2013-01-30 04:56:00,